Time;durP1;ratioP1;P1;durP2;ratioP2;P2;SDS_P1;SDS_P2;PMS_P1;PMS_P2;Temp;Humidity;BMP_temperature;BMP_pressure;BME280_temperature;BME280_humidity;BME280_pressure;Samples;Min_cycle;Max_cycle;Signal;HPM_P1;HPM_P2
2022/05/13 00:02:00;;;;;;;11.17;9.30;;;;;;;;;;5074108;28;20824;-73
2022/05/13 00:04:27;;;;;;;13.00;9.20;;;;;;;;;;5075564;28;20452;-73
2022/05/13 00:06:54;;;;;;;14.30;10.50;;;;;;;;;;5075752;28;20485;-73
2022/05/13 00:09:56;;;;;;;11.23;9.10;;;;;;;;;;5075488;28;20487;-73
2022/05/13 00:12:09;;;;;;;15.40;10.27;;;;;;;;;;5075485;28;20455;-73
2022/05/13 00:14:36;;;;;;;13.77;9.40;;;;;;;;;;5075407;28;20450;-73
2022/05/13 00:17:04;;;;;;;11.73;10.03;;;;;;;;;;5075009;28;20452;-73
2022/05/13 00:19:32;;;;;;;10.03;9.00;;;;;;;;;;5075532;28;20471;-73
2022/05/13 00:22:00;;;;;;;12.20;10.07;;;;;;;;;;5075313;28;20557;-73
2022/05/13 00:24:27;;;;;;;12.43;8.90;;;;;;;;;;5075155;28;20463;-73
2022/05/13 00:26:54;;;;;;;12.70;10.17;;;;;;;;;;5075331;28;20459;-73
2022/05/13 00:29:22;;;;;;;11.07;9.70;;;;;;;;;;5075137;28;20507;-73
2022/05/13 00:31:49;;;;;;;17.33;10.20;;;;;;;;;;5075330;28;20956;-73
2022/05/13 00:34:18;;;;;;;13.57;10.23;;;;;;;;;;5074983;28;20834;-73
2022/05/13 00:36:47;;;;;;;12.90;9.10;;;;;;;;;;5075111;28;20455;-73
2022/05/13 00:39:14;;;;;;;12.60;9.77;;;;;;;;;;5075097;28;21032;-73
2022/05/13 00:41:42;;;;;;;11.17;10.07;;;;;;;;;;5075061;28;20459;-73
2022/05/13 00:44:09;;;;;;;11.30;9.43;;;;;;;;;;5074870;28;20963;-73
2022/05/13 00:46:36;;;;;;;13.17;10.10;;;;;;;;;;5075083;28;20452;-73
2022/05/13 00:49:05;;;;;;;12.07;9.37;;;;;;;;;;5074777;28;20491;-73
2022/05/13 00:51:35;;;;;;;13.07;10.07;;;;;;;;;;5075029;28;20455;-73
2022/05/13 00:54:02;;;;;;;10.97;9.80;;;;;;;;;;5074554;28;20964;-73
2022/05/13 00:56:30;;;;;;;11.57;9.00;;;;;;;;;;5074902;28;20451;-73
2022/05/13 00:58:59;;;;;;;10.27;9.27;;;;;;;;;;5074780;28;20546;-73
2022/05/13 01:01:26;;;;;;;12.47;9.73;;;;;;;;;;5074792;28;20458;-73
2022/05/13 01:03:54;;;;;;;15.20;9.90;;;;;;;;;;5074508;28;20831;-73
2022/05/13 01:06:22;;;;;;;12.33;10.70;;;;;;;;;;5074724;28;20538;-73
2022/05/13 01:08:51;;;;;;;11.73;8.50;;;;;;;;;;5074400;28;20510;-73
2022/05/13 01:11:19;;;;;;;10.03;8.97;;;;;;;;;;5074454;28;20489;-74
2022/05/13 01:13:49;;;;;;;12.87;10.07;;;;;;;;;;5073712;28;20452;-73
2022/05/13 01:16:17;;;;;;;13.50;11.37;;;;;;;;;;5074178;28;20945;-73
2022/05/13 01:18:43;;;;;;;13.17;9.77;;;;;;;;;;5074224;28;20956;-73
2022/05/13 01:21:13;;;;;;;13.10;10.00;;;;;;;;;;5074342;28;20844;-73
2022/05/13 01:23:42;;;;;;;12.23;9.60;;;;;;;;;;5074028;28;20507;-73
2022/05/13 01:26:11;;;;;;;11.60;9.93;;;;;;;;;;5074165;28;20474;-73
2022/05/13 01:28:40;;;;;;;12.97;10.20;;;;;;;;;;5074177;28;20487;-73
2022/05/13 01:31:08;;;;;;;11.27;8.93;;;;;;;;;;5074154;28;20478;-73
2022/05/13 01:33:35;;;;;;;11.47;9.43;;;;;;;;;;5074190;28;20455;-73
2022/05/13 01:36:04;;;;;;;13.77;11.00;;;;;;;;;;5074099;28;20463;-73
2022/05/13 01:38:32;;;;;;;15.47;10.00;;;;;;;;;;5074068;28;20450;-73
2022/05/13 01:41:01;;;;;;;26.70;14.27;;;;;;;;;;5074110;28;20495;-73
2022/05/13 01:43:28;;;;;;;14.13;10.60;;;;;;;;;;5073764;28;20494;-73
2022/05/13 01:45:56;;;;;;;9.30;8.30;;;;;;;;;;5073878;28;20451;-73
2022/05/13 01:48:23;;;;;;;10.73;9.63;;;;;;;;;;5073768;28;20483;-73
2022/05/13 01:50:50;;;;;;;15.30;10.90;;;;;;;;;;5074076;28;20851;-73
2022/05/13 01:53:18;;;;;;;12.53;11.07;;;;;;;;;;5073796;28;20452;-73
2022/05/13 01:55:45;;;;;;;11.20;10.00;;;;;;;;;;5073436;28;20463;-73
2022/05/13 01:58:14;;;;;;;12.10;10.77;;;;;;;;;;5073514;28;20869;-73
2022/05/13 02:00:41;;;;;;;10.17;9.10;;;;;;;;;;5073468;28;20483;-73
2022/05/13 02:05:53;;;;;;;14.43;9.50;;;;;;;;;;5073683;28;20502;-73
2022/05/13 02:08:21;;;;;;;13.60;9.67;;;;;;;;;;5073377;28;20494;-73
2022/05/13 02:10:48;;;;;;;11.43;9.07;;;;;;;;;;5073739;28;20476;-73
2022/05/13 02:13:18;;;;;;;10.70;9.20;;;;;;;;;;5073240;28;20456;-73
2022/05/13 02:15:45;;;;;;;11.70;10.03;;;;;;;;;;5072856;28;20447;-73
2022/05/13 02:18:12;;;;;;;12.43;9.03;;;;;;;;;;5073291;28;20462;-73
2022/05/13 02:20:39;;;;;;;12.03;9.40;;;;;;;;;;5073254;28;20464;-73
2022/05/13 02:23:07;;;;;;;14.60;11.13;;;;;;;;;;5073112;28;20463;-73
2022/05/13 02:25:34;;;;;;;13.73;12.33;;;;;;;;;;5073136;28;20450;-73
2022/05/13 02:28:01;;;;;;;10.40;9.30;;;;;;;;;;5072976;28;20835;-73
2022/05/13 02:30:30;;;;;;;14.30;9.17;;;;;;;;;;5073287;28;21007;-73
2022/05/13 02:32:57;;;;;;;10.50;9.40;;;;;;;;;;5073025;28;20825;-73
2022/05/13 02:35:24;;;;;;;14.00;10.60;;;;;;;;;;5072932;28;20464;-73
2022/05/13 02:37:52;;;;;;;11.23;10.03;;;;;;;;;;5073043;28;20799;-73
2022/05/13 02:40:19;;;;;;;11.60;10.13;;;;;;;;;;5073081;28;20464;-73
2022/05/13 02:42:46;;;;;;;11.17;9.30;;;;;;;;;;5072908;28;20448;-73
2022/05/13 02:45:14;;;;;;;12.70;9.60;;;;;;;;;;5072661;28;20497;-73
2022/05/13 02:47:43;;;;;;;17.17;15.27;;;;;;;;;;5072940;28;20447;-73
2022/05/13 02:50:21;;;;;;;13.83;10.50;;;;;;;;;;5072710;28;21063;-74
2022/05/13 02:52:48;;;;;;;13.27;10.97;;;;;;;;;;5072815;28;20459;-73
2022/05/13 02:55:16;;;;;;;13.10;9.23;;;;;;;;;;5072524;28;20832;-73
2022/05/13 02:57:44;;;;;;;11.83;10.10;;;;;;;;;;5072935;28;20475;-73
2022/05/13 03:00:11;;;;;;;12.80;9.93;;;;;;;;;;5072681;28;20467;-73
2022/05/13 03:02:38;;;;;;;14.00;10.40;;;;;;;;;;5072805;28;20955;-73
2022/05/13 03:05:08;;;;;;;15.30;11.20;;;;;;;;;;5072602;28;20463;-74
2022/05/13 03:07:35;;;;;;;18.40;11.60;;;;;;;;;;5072636;28;20509;-73
2022/05/13 03:10:02;;;;;;;12.13;9.70;;;;;;;;;;5073118;28;20842;-73
2022/05/13 03:12:29;;;;;;;12.10;10.63;;;;;;;;;;5072808;28;20447;-73
2022/05/13 03:14:56;;;;;;;15.23;13.30;;;;;;;;;;5072266;28;20456;-73
2022/05/13 03:17:23;;;;;;;12.70;11.17;;;;;;;;;;5072282;28;20809;-73
2022/05/13 03:19:50;;;;;;;15.50;10.33;;;;;;;;;;5072686;28;20475;-73
2022/05/13 03:22:19;;;;;;;13.17;10.50;;;;;;;;;;5072480;28;20475;-74
2022/05/13 03:24:46;;;;;;;12.53;10.23;;;;;;;;;;5072451;28;20471;-74
2022/05/13 03:27:13;;;;;;;12.73;10.93;;;;;;;;;;5072432;28;20464;-74
2022/05/13 03:29:40;;;;;;;15.53;10.00;;;;;;;;;;5072388;28;20491;-73
2022/05/13 03:32:08;;;;;;;12.87;10.70;;;;;;;;;;5072421;28;20456;-73
2022/05/13 03:34:35;;;;;;;11.80;9.40;;;;;;;;;;5072341;28;20956;-73
2022/05/13 03:37:02;;;;;;;11.80;10.03;;;;;;;;;;5074506;28;20451;-73
2022/05/13 03:39:30;;;;;;;16.43;13.90;;;;;;;;;;5076371;28;20838;-73
2022/05/13 03:41:58;;;;;;;15.43;11.77;;;;;;;;;;5076216;28;20458;-73
2022/05/13 03:44:25;;;;;;;18.00;12.00;;;;;;;;;;5075924;28;20451;-73
2022/05/13 03:46:52;;;;;;;19.40;10.93;;;;;;;;;;5076178;28;20949;-73
2022/05/13 03:49:19;;;;;;;15.80;11.90;;;;;;;;;;5075910;28;20518;-73
2022/05/13 03:51:46;;;;;;;17.67;11.07;;;;;;;;;;5076075;28;20458;-73
2022/05/13 03:54:13;;;;;;;15.07;10.63;;;;;;;;;;5075852;28;20454;-73
2022/05/13 03:56:41;;;;;;;14.30;11.57;;;;;;;;;;5076038;28;20945;-73
2022/05/13 03:59:08;;;;;;;14.57;11.90;;;;;;;;;;5075913;28;20486;-73
2022/05/13 04:01:35;;;;;;;14.50;11.23;;;;;;;;;;5075931;28;20447;-73
2022/05/13 04:04:03;;;;;;;12.60;11.30;;;;;;;;;;5075526;28;20451;-73
2022/05/13 04:09:14;;;;;;;20.00;14.97;;;;;;;;;;5075641;28;20487;-73
2022/05/13 04:16:04;;;;;;;15.23;13.60;;;;;;;;;;5075791;28;20862;-73
2022/05/13 04:17:15;;;;;;;12.70;11.40;;;;;;;;;;5074601;28;20438;-73
2022/05/13 04:19:42;;;;;;;12.10;10.87;;;;;;;;;;5075350;28;20975;-73
2022/05/13 04:22:13;;;;;;;14.20;12.10;;;;;;;;;;5075481;28;20457;-73
2022/05/13 04:24:40;;;;;;;18.60;12.00;;;;;;;;;;5075161;28;20597;-73
2022/05/13 04:27:08;;;;;;;17.00;12.90;;;;;;;;;;5075326;28;20454;-73
2022/05/13 04:29:37;;;;;;;11.77;10.57;;;;;;;;;;5075396;28;20487;-73
2022/05/13 04:32:04;;;;;;;13.30;11.10;;;;;;;;;;5075420;28;20463;-73
2022/05/13 04:34:31;;;;;;;13.80;11.27;;;;;;;;;;5075178;28;20452;-73
2022/05/13 04:36:58;;;;;;;13.47;12.07;;;;;;;;;;5075177;28;20805;-73
2022/05/13 04:39:25;;;;;;;20.97;12.80;;;;;;;;;;5075354;28;20472;-73
2022/05/13 04:44:39;;;;;;;11.77;10.57;;;;;;;;;;5074934;28;20427;-73
2022/05/13 04:48:15;;;;;;;13.00;10.87;;;;;;;;;;5084116;28;20447;-73
2022/05/13 04:49:54;;;;;;;12.70;10.00;;;;;;;;;;5094106;28;20674;-73
2022/05/13 04:52:21;;;;;;;13.63;11.20;;;;;;;;;;5094781;28;20458;-73
2022/05/13 04:54:48;;;;;;;17.20;11.67;;;;;;;;;;5094751;28;20480;-73
2022/05/13 04:57:15;;;;;;;12.77;11.47;;;;;;;;;;5094788;28;20450;-73
2022/05/13 04:59:44;;;;;;;15.17;11.93;;;;;;;;;;5094965;28;20467;-73
2022/05/13 05:02:11;;;;;;;13.37;11.70;;;;;;;;;;5094557;28;20963;-73
2022/05/13 05:04:38;;;;;;;12.10;10.43;;;;;;;;;;5094637;28;20457;-73
2022/05/13 05:07:05;;;;;;;16.20;11.60;;;;;;;;;;5094617;28;20963;-73
2022/05/13 05:09:35;;;;;;;12.60;10.93;;;;;;;;;;5094675;28;20489;-73
2022/05/13 05:12:03;;;;;;;14.87;10.47;;;;;;;;;;5094559;28;20457;-73
2022/05/13 05:14:30;;;;;;;11.73;10.53;;;;;;;;;;5094518;28;20823;-73
2022/05/13 05:16:59;;;;;;;10.43;9.30;;;;;;;;;;5094273;28;20451;-73
2022/05/13 05:19:26;;;;;;;12.47;10.83;;;;;;;;;;5094571;28;20957;-73
2022/05/13 05:21:53;;;;;;;11.47;10.30;;;;;;;;;;5094434;28;20450;-73
2022/05/13 05:24:20;;;;;;;11.00;9.80;;;;;;;;;;5093989;28;20470;-73
2022/05/13 05:26:47;;;;;;;11.70;10.47;;;;;;;;;;5094555;28;20960;-73
2022/05/13 05:29:16;;;;;;;10.87;9.50;;;;;;;;;;5094026;28;20877;-73
2022/05/13 05:31:43;;;;;;;12.87;10.90;;;;;;;;;;5094250;28;20948;-73
2022/05/13 05:34:11;;;;;;;14.87;10.47;;;;;;;;;;5093847;28;20512;-73
2022/05/13 05:36:38;;;;;;;14.70;10.70;;;;;;;;;;5077862;28;21008;-73
2022/05/13 05:39:06;;;;;;;79.97;16.80;;;;;;;;;;5089025;28;20457;-73
2022/05/13 05:41:34;;;;;;;26.23;11.97;;;;;;;;;;5092618;28;20450;-73
2022/05/13 05:44:01;;;;;;;23.53;15.07;;;;;;;;;;5092009;28;20442;-73
2022/05/13 05:46:28;;;;;;;67.63;17.47;;;;;;;;;;5092712;28;20446;-73
2022/05/13 05:48:55;;;;;;;116.93;23.93;;;;;;;;;;5093868;28;20474;-73
2022/05/13 05:51:23;;;;;;;32.30;13.30;;;;;;;;;;5093557;28;20489;-73
2022/05/13 05:59:20;;;;;;;73.43;18.23;;;;;;;;;;5093397;28;20450;-73
2022/05/13 06:01:47;;;;;;;102.03;22.00;;;;;;;;;;5093739;28;20451;-73
2022/05/13 06:04:14;;;;;;;34.97;13.17;;;;;;;;;;5093353;28;20458;-73
2022/05/13 06:06:43;;;;;;;20.77;11.37;;;;;;;;;;5093698;28;20965;-73
2022/05/13 06:09:10;;;;;;;237.20;39.70;;;;;;;;;;5093230;28;20478;-73
2022/05/13 06:11:37;;;;;;;318.53;52.73;;;;;;;;;;5093627;28;20458;-73
2022/05/13 06:14:05;;;;;;;43.43;14.53;;;;;;;;;;5092863;28;20508;-73
2022/05/13 06:16:32;;;;;;;47.30;11.20;;;;;;;;;;5093159;28;20447;-73
2022/05/13 06:19:00;;;;;;;15.20;8.93;;;;;;;;;;5093318;28;20833;-73
2022/05/13 06:21:27;;;;;;;11.97;9.27;;;;;;;;;;5093514;28;20872;-73
2022/05/13 06:23:56;;;;;;;13.07;8.53;;;;;;;;;;5093035;28;20469;-73
2022/05/13 06:26:23;;;;;;;12.37;9.40;;;;;;;;;;5092162;28;20943;-73
2022/05/13 06:28:50;;;;;;;15.77;9.37;;;;;;;;;;5092858;28;20461;-73
2022/05/13 06:31:18;;;;;;;10.40;8.90;;;;;;;;;;5093409;28;20482;-73
2022/05/13 06:33:46;;;;;;;14.60;8.60;;;;;;;;;;5093075;28;20458;-73
2022/05/13 06:36:13;;;;;;;10.60;9.50;;;;;;;;;;5093150;28;20932;-73
2022/05/13 06:38:41;;;;;;;10.97;8.77;;;;;;;;;;5093078;28;20452;-73
2022/05/13 06:41:09;;;;;;;9.97;8.97;;;;;;;;;;5093253;28;20467;-73
2022/05/13 06:43:37;;;;;;;10.83;9.13;;;;;;;;;;5092848;28;20844;-73
2022/05/13 06:46:04;;;;;;;15.20;9.87;;;;;;;;;;5093040;28;20454;-73
2022/05/13 06:48:31;;;;;;;15.53;9.60;;;;;;;;;;5093127;28;20944;-73
2022/05/13 06:51:00;;;;;;;10.13;8.90;;;;;;;;;;5093122;28;20501;-73
2022/05/13 06:53:27;;;;;;;10.67;8.40;;;;;;;;;;5093037;28;20454;-73
2022/05/13 06:55:54;;;;;;;7.73;6.83;;;;;;;;;;5092995;28;20450;-73
2022/05/13 06:58:22;;;;;;;8.10;7.30;;;;;;;;;;5093040;28;20944;-73
2022/05/13 07:00:50;;;;;;;8.30;7.50;;;;;;;;;;5092938;28;20474;-73
2022/05/13 07:03:18;;;;;;;7.73;6.87;;;;;;;;;;5092870;28;20453;-73
2022/05/13 07:05:45;;;;;;;9.90;8.00;;;;;;;;;;5092700;28;20454;-73
2022/05/13 07:08:12;;;;;;;8.53;7.23;;;;;;;;;;5092809;28;20454;-73
2022/05/13 07:10:40;;;;;;;8.57;7.20;;;;;;;;;;5093169;28;20497;-73
2022/05/13 07:13:08;;;;;;;7.23;6.53;;;;;;;;;;5097062;28;20462;-73
2022/05/13 07:15:36;;;;;;;7.63;6.93;;;;;;;;;;5096427;28;20830;-73
2022/05/13 07:18:04;;;;;;;7.20;6.50;;;;;;;;;;5097074;28;20454;-73
2022/05/13 07:20:31;;;;;;;8.53;7.57;;;;;;;;;;5097101;28;20915;-73
2022/05/13 07:22:58;;;;;;;13.03;7.80;;;;;;;;;;5096749;28;20450;-73
2022/05/13 07:25:26;;;;;;;11.00;7.90;;;;;;;;;;5096823;28;20978;-73
2022/05/13 07:27:53;;;;;;;7.53;6.87;;;;;;;;;;5096733;28;20554;-73
2022/05/13 07:30:20;;;;;;;13.13;7.77;;;;;;;;;;5096601;28;20521;-73
2022/05/13 07:32:49;;;;;;;8.43;7.63;;;;;;;;;;5096821;28;20450;-73
2022/05/13 07:35:16;;;;;;;9.10;7.80;;;;;;;;;;5096378;28;20500;-73
2022/05/13 07:37:43;;;;;;;9.73;7.50;;;;;;;;;;5096692;28;20454;-73
2022/05/13 07:42:56;;;;;;;8.10;7.03;;;;;;;;;;5096540;28;20798;-73
2022/05/13 07:45:23;;;;;;;9.43;8.43;;;;;;;;;;5096481;28;20442;-73
2022/05/13 07:47:53;;;;;;;7.70;6.90;;;;;;;;;;5096511;28;20458;-73
2022/05/13 07:50:20;;;;;;;7.63;6.00;;;;;;;;;;5096220;28;21005;-73
2022/05/13 07:52:50;;;;;;;8.20;7.40;;;;;;;;;;5096289;28;20537;-73
2022/05/13 07:55:18;;;;;;;11.30;9.50;;;;;;;;;;5096048;28;20814;-73
2022/05/13 07:57:46;;;;;;;7.10;6.40;;;;;;;;;;5096345;28;20817;-73
2022/05/13 08:00:27;;;;;;;10.90;7.80;;;;;;;;;;5096075;28;20471;-73
2022/05/13 08:02:57;;;;;;;7.67;6.87;;;;;;;;;;5096160;28;20454;-73
2022/05/13 08:05:24;;;;;;;9.00;7.60;;;;;;;;;;5095848;28;20450;-73
2022/05/13 08:07:59;;;;;;;8.63;7.67;;;;;;;;;;5096023;28;20465;-73
2022/05/13 08:10:26;;;;;;;7.60;6.90;;;;;;;;;;5096157;28;20542;-73
2022/05/13 08:12:53;;;;;;;7.80;7.10;;;;;;;;;;5096041;28;20938;-73
2022/05/13 08:15:20;;;;;;;9.10;6.83;;;;;;;;;;5095229;28;20454;-73
2022/05/13 08:17:48;;;;;;;8.60;7.17;;;;;;;;;;5095924;28;20455;-73
2022/05/13 08:20:16;;;;;;;9.37;7.43;;;;;;;;;;5095656;28;20975;-73
2022/05/13 08:22:45;;;;;;;7.73;7.07;;;;;;;;;;5095672;28;20458;-73
2022/05/13 08:25:12;;;;;;;8.17;6.97;;;;;;;;;;5095483;28;20485;-73
2022/05/13 08:27:39;;;;;;;8.53;7.00;;;;;;;;;;5095657;28;20453;-73
2022/05/13 08:30:09;;;;;;;7.40;6.70;;;;;;;;;;5095527;28;20466;-73
2022/05/13 08:32:36;;;;;;;7.83;7.00;;;;;;;;;;5095537;28;20489;-73
2022/05/13 08:35:03;;;;;;;10.90;6.87;;;;;;;;;;5095327;28;20446;-73
2022/05/13 08:37:32;;;;;;;8.73;7.97;;;;;;;;;;5095397;28;20442;-73
2022/05/13 08:40:00;;;;;;;9.40;8.00;;;;;;;;;;5095211;28;20510;-73
2022/05/13 08:42:35;;;;;;;8.00;7.20;;;;;;;;;;5095344;28;20450;-72
2022/05/13 08:45:02;;;;;;;6.70;6.10;;;;;;;;;;5095418;28;20507;-73
2022/05/13 08:47:33;;;;;;;6.97;6.40;;;;;;;;;;5095384;28;20446;-72
2022/05/13 08:50:03;;;;;;;9.67;6.23;;;;;;;;;;5095158;28;20471;-73
2022/05/13 08:55:25;;;;;;;7.20;6.50;;;;;;;;;;5095023;28;20787;-73
2022/05/13 08:57:52;;;;;;;7.63;5.53;;;;;;;;;;5095160;28;20971;-73
2022/05/13 09:00:24;;;;;;;6.87;6.17;;;;;;;;;;5092844;28;20470;-74
2022/05/13 09:02:54;;;;;;;8.20;7.10;;;;;;;;;;5093474;28;20450;-73
2022/05/13 09:05:24;;;;;;;7.23;6.50;;;;;;;;;;5093189;28;20450;-73
2022/05/13 09:08:00;;;;;;;6.40;5.70;;;;;;;;;;5093401;28;20830;-73
2022/05/13 09:10:28;;;;;;;6.63;6.03;;;;;;;;;;5093722;28;21011;-73
2022/05/13 09:12:58;;;;;;;7.60;6.73;;;;;;;;;;5093272;28;20458;-73
2022/05/13 09:15:30;;;;;;;7.53;6.60;;;;;;;;;;5092808;28;20829;-73
2022/05/13 09:18:02;;;;;;;7.87;6.50;;;;;;;;;;5093497;28;20836;-73
2022/05/13 09:20:29;;;;;;;5.77;5.17;;;;;;;;;;5093181;28;20470;-73
2022/05/13 09:22:59;;;;;;;9.97;7.07;;;;;;;;;;5092837;28;20457;-73
2022/05/13 09:25:27;;;;;;;8.80;7.67;;;;;;;;;;5092958;28;20486;-73
2022/05/13 09:27:59;;;;;;;6.60;6.00;;;;;;;;;;5093107;28;20805;-73
2022/05/13 09:30:32;;;;;;;6.70;6.13;;;;;;;;;;5092653;28;20481;-73
2022/05/13 09:32:59;;;;;;;7.57;5.63;;;;;;;;;;5092963;28;20947;-75
2022/05/13 09:35:31;;;;;;;7.03;5.97;;;;;;;;;;5092483;28;20450;-72
2022/05/13 09:37:59;;;;;;;6.50;5.70;;;;;;;;;;5094143;28;20447;-72
2022/05/13 09:40:31;;;;;;;6.60;5.47;;;;;;;;;;5094284;28;20474;-72
2022/05/13 09:42:58;;;;;;;6.70;6.10;;;;;;;;;;5094415;28;20461;-72
2022/05/13 09:45:26;;;;;;;6.63;5.93;;;;;;;;;;5094184;28;20451;-72
2022/05/13 09:48:01;;;;;;;6.67;6.10;;;;;;;;;;5094016;28;20453;-72
2022/05/13 09:50:30;;;;;;;6.23;5.70;;;;;;;;;;5093978;28;20557;-72
2022/05/13 09:53:04;;;;;;;6.33;5.80;;;;;;;;;;5094101;28;20447;-72
2022/05/13 09:55:35;;;;;;;6.73;6.10;;;;;;;;;;5094042;28;20454;-72
2022/05/13 09:58:04;;;;;;;6.70;6.10;;;;;;;;;;5093909;28;20443;-72
2022/05/13 10:00:32;;;;;;;12.50;8.47;;;;;;;;;;5094140;28;20842;-72
2022/05/13 10:03:11;;;;;;;7.57;6.87;;;;;;;;;;5093865;28;20505;-72
2022/05/13 10:05:38;;;;;;;8.07;6.23;;;;;;;;;;5093631;28;20458;-72
2022/05/13 10:08:09;;;;;;;7.80;7.00;;;;;;;;;;5093733;28;20447;-72
2022/05/13 10:16:09;;;;;;;11.47;10.37;;;;;;;;;;5093253;28;20492;-72
2022/05/13 10:18:37;;;;;;;9.93;8.97;;;;;;;;;;5093790;28;20459;-72
2022/05/13 10:21:06;;;;;;;9.63;8.67;;;;;;;;;;5093384;28;20478;-72
2022/05/13 10:23:37;;;;;;;10.60;8.97;;;;;;;;;;5093317;28;20840;-72
2022/05/13 10:26:06;;;;;;;14.67;9.83;;;;;;;;;;5093350;28;20457;-72
2022/05/13 10:28:36;;;;;;;10.43;9.40;;;;;;;;;;5093466;28;20443;-72
2022/05/13 10:31:04;;;;;;;18.60;12.63;;;;;;;;;;5093647;28;20880;-72
2022/05/13 10:33:36;;;;;;;12.33;11.13;;;;;;;;;;5093107;28;20443;-73
2022/05/13 10:36:06;;;;;;;13.43;11.80;;;;;;;;;;5093281;28;20561;-73
2022/05/13 10:38:37;;;;;;;15.93;11.83;;;;;;;;;;5093299;28;20458;-73
2022/05/13 10:41:11;;;;;;;15.23;12.60;;;;;;;;;;5093360;28;20474;-73
2022/05/13 10:43:40;;;;;;;11.93;10.47;;;;;;;;;;5093106;28;20459;-73
2022/05/13 10:46:13;;;;;;;23.17;10.50;;;;;;;;;;5092105;28;20462;-73
2022/05/13 10:48:40;;;;;;;13.87;12.50;;;;;;;;;;5093284;28;20446;-73
2022/05/13 10:51:11;;;;;;;12.40;9.70;;;;;;;;;;5092783;28;20493;-74
2022/05/13 10:53:45;;;;;;;10.13;7.90;;;;;;;;;;5092976;28;20450;-75
2022/05/13 10:56:17;;;;;;;10.07;6.80;;;;;;;;;;5092971;28;20951;-75
2022/05/13 10:58:49;;;;;;;10.47;6.37;;;;;;;;;;5093144;28;20935;-74
2022/05/13 11:01:24;;;;;;;8.70;6.13;;;;;;;;;;5093017;28;20511;-74
2022/05/13 11:03:58;;;;;;;10.13;7.67;;;;;;;;;;5092841;28;20935;-74
2022/05/13 11:06:31;;;;;;;9.40;7.87;;;;;;;;;;5093007;28;20548;-74
2022/05/13 11:09:03;;;;;;;9.37;7.97;;;;;;;;;;5092861;28;20832;-74
2022/05/13 11:11:39;;;;;;;10.27;8.10;;;;;;;;;;5092941;28;20482;-74
2022/05/13 11:14:21;;;;;;;10.87;9.30;;;;;;;;;;5090438;28;20935;-74
2022/05/13 11:16:53;;;;;;;12.80;9.10;;;;;;;;;;5088927;28;20462;-74
2022/05/13 11:19:26;;;;;;;10.13;8.97;;;;;;;;;;5091118;28;20477;-74
2022/05/13 11:21:56;;;;;;;12.10;9.57;;;;;;;;;;5091671;28;20453;-74
2022/05/13 11:27:32;;;;;;;10.30;7.03;;;;;;;;;;5054614;28;20522;-74
2022/05/13 11:30:02;;;;;;;13.20;7.30;;;;;;;;;;5091327;28;20473;-74
2022/05/13 11:32:32;;;;;;;8.30;7.03;;;;;;;;;;5091449;28;20490;-74
2022/05/13 11:35:06;;;;;;;9.97;8.17;;;;;;;;;;5090945;28;20450;-74
2022/05/13 11:37:36;;;;;;;8.87;7.50;;;;;;;;;;5092388;28;20447;-74
2022/05/13 11:40:14;;;;;;;9.30;8.30;;;;;;;;;;5092455;28;20561;-74
2022/05/13 11:45:50;;;;;;;13.33;7.47;;;;;;;;;;5076489;28;20445;-73
2022/05/13 11:48:20;;;;;;;10.43;8.73;;;;;;;;;;5092535;28;20451;-73
2022/05/13 11:50:47;;;;;;;8.60;7.60;;;;;;;;;;5092652;28;20489;-73
2022/05/13 11:53:43;;;;;;;9.17;8.37;;;;;;;;;;5089678;28;20494;-73
2022/05/13 11:56:14;;;;;;;8.80;7.90;;;;;;;;;;5072260;28;20941;-73
2022/05/13 11:59:03;;;;;;;13.33;9.20;;;;;;;;;;5075419;28;20455;-74
2022/05/13 12:01:48;;;;;;;11.97;9.33;;;;;;;;;;5072744;28;20892;-74
2022/05/13 12:04:29;;;;;;;12.80;9.13;;;;;;;;;;5075530;28;20483;-74
2022/05/13 12:06:57;;;;;;;11.90;9.00;;;;;;;;;;5075825;28;20447;-74
2022/05/13 12:09:25;;;;;;;10.17;8.67;;;;;;;;;;5075650;28;20467;-74
2022/05/13 12:11:55;;;;;;;9.23;8.03;;;;;;;;;;5075643;28;20491;-73
2022/05/13 12:14:26;;;;;;;8.70;7.43;;;;;;;;;;5075460;28;20447;-73
2022/05/13 12:17:01;;;;;;;10.20;8.27;;;;;;;;;;5075214;28;20458;-73
2022/05/13 12:19:34;;;;;;;12.53;7.70;;;;;;;;;;5075665;28;20471;-73
2022/05/13 12:22:05;;;;;;;14.43;8.40;;;;;;;;;;5075530;28;20875;-73
2022/05/13 12:24:52;;;;;;;11.47;7.73;;;;;;;;;;5075336;28;20467;-73
2022/05/13 12:27:29;;;;;;;9.47;8.23;;;;;;;;;;5075215;28;20959;-74
2022/05/13 12:30:05;;;;;;;8.80;7.50;;;;;;;;;;5075393;28;20479;-74
2022/05/13 12:32:44;;;;;;;10.90;7.40;;;;;;;;;;5075438;28;20487;-74
2022/05/13 12:38:06;;;;;;;6.87;6.07;;;;;;;;;;5075223;28;20529;-74
2022/05/13 12:40:35;;;;;;;9.20;7.70;;;;;;;;;;5075404;28;20537;-74
2022/05/13 12:43:07;;;;;;;9.37;8.07;;;;;;;;;;5075182;28;20944;-74
2022/05/13 12:45:41;;;;;;;12.50;7.50;;;;;;;;;;5075049;28;20455;-74
2022/05/13 12:48:18;;;;;;;13.17;6.97;;;;;;;;;;5075079;28;20451;-74
2022/05/13 12:50:49;;;;;;;8.77;7.50;;;;;;;;;;5075202;28;21054;-74
2022/05/13 12:53:31;;;;;;;7.80;7.00;;;;;;;;;;5074840;28;21004;-74
2022/05/13 12:55:59;;;;;;;8.83;7.93;;;;;;;;;;5074837;28;20459;-74
2022/05/13 12:58:27;;;;;;;8.53;7.63;;;;;;;;;;5074707;28;20935;-73
2022/05/13 13:00:55;;;;;;;10.13;7.67;;;;;;;;;;5074895;28;20993;-73
2022/05/13 13:03:23;;;;;;;7.17;6.43;;;;;;;;;;5074662;28;20975;-73
2022/05/13 13:06:00;;;;;;;6.43;5.40;;;;;;;;;;5074655;28;20452;-73
2022/05/13 13:08:36;;;;;;;5.57;5.10;;;;;;;;;;5074028;28;20451;-73
2022/05/13 13:11:05;;;;;;;6.27;5.30;;;;;;;;;;5074701;28;20976;-73
2022/05/13 13:13:35;;;;;;;5.63;5.13;;;;;;;;;;5074438;28;20517;-73
2022/05/13 13:16:05;;;;;;;5.33;4.83;;;;;;;;;;5073876;28;20462;-73
2022/05/13 13:18:33;;;;;;;7.10;5.27;;;;;;;;;;5074554;28;20451;-73
2022/05/13 13:21:03;;;;;;;5.87;5.03;;;;;;;;;;5074368;28;20471;-73
2022/05/13 13:23:31;;;;;;;6.53;4.40;;;;;;;;;;5074166;28;20464;-73
2022/05/13 13:25:58;;;;;;;6.57;5.03;;;;;;;;;;5074493;28;20953;-73
2022/05/13 13:28:26;;;;;;;4.97;4.50;;;;;;;;;;5074192;28;20487;-73
2022/05/13 13:30:55;;;;;;;5.13;4.67;;;;;;;;;;5074362;28;20491;-73
2022/05/13 13:33:22;;;;;;;6.47;5.63;;;;;;;;;;5074110;28;20488;-73
2022/05/13 13:35:49;;;;;;;7.63;7.00;;;;;;;;;;5073908;28;20976;-73
2022/05/13 13:38:18;;;;;;;7.60;5.53;;;;;;;;;;5074045;28;20792;-73
2022/05/13 13:40:46;;;;;;;8.40;5.43;;;;;;;;;;5074117;28;20475;-73
2022/05/13 13:43:14;;;;;;;5.27;4.77;;;;;;;;;;5073827;28;20818;-73
2022/05/13 13:45:43;;;;;;;6.43;5.13;;;;;;;;;;5073826;28;20456;-73
2022/05/13 13:48:12;;;;;;;4.97;4.57;;;;;;;;;;5073662;28;20452;-73
2022/05/13 13:50:45;;;;;;;6.77;4.60;;;;;;;;;;5073935;28;20472;-73
2022/05/13 13:53:13;;;;;;;9.27;4.73;;;;;;;;;;5073642;28;20488;-73
2022/05/13 13:55:41;;;;;;;6.30;5.30;;;;;;;;;;5073501;28;20501;-73
2022/05/13 13:58:23;;;;;;;5.13;4.73;;;;;;;;;;5073669;28;20949;-73
2022/05/13 14:00:51;;;;;;;4.83;4.27;;;;;;;;;;5072100;28;20495;-72
2022/05/13 14:03:20;;;;;;;7.40;4.73;;;;;;;;;;5073447;28;20436;-73
2022/05/13 14:05:51;;;;;;;4.60;4.20;;;;;;;;;;5073277;28;20451;-73
2022/05/13 14:08:19;;;;;;;4.73;3.50;;;;;;;;;;5073433;28;20451;-73
2022/05/13 14:10:50;;;;;;;5.33;4.47;;;;;;;;;;5073390;28;20467;-73
2022/05/13 14:13:19;;;;;;;5.07;4.33;;;;;;;;;;5073215;28;21355;-73
2022/05/13 14:15:48;;;;;;;5.93;5.33;;;;;;;;;;5072681;28;20486;-73
2022/05/13 14:18:16;;;;;;;5.50;5.10;;;;;;;;;;5073254;28;20456;-73
2022/05/13 14:20:44;;;;;;;5.97;4.47;;;;;;;;;;5073254;28;20981;-73
2022/05/13 14:23:14;;;;;;;6.33;5.37;;;;;;;;;;5073106;28;20456;-73
2022/05/13 14:25:43;;;;;;;7.20;5.27;;;;;;;;;;5072908;28;20460;-73
2022/05/13 14:28:13;;;;;;;6.60;5.30;;;;;;;;;;5073171;28;20455;-73
2022/05/13 14:30:40;;;;;;;8.10;5.03;;;;;;;;;;5073403;28;20471;-73
2022/05/13 14:33:09;;;;;;;5.93;5.43;;;;;;;;;;5072895;28;21007;-73
2022/05/13 14:35:36;;;;;;;5.83;5.23;;;;;;;;;;5072889;28;20460;-73
2022/05/13 14:38:05;;;;;;;7.30;6.53;;;;;;;;;;5073018;28;20530;-73
2022/05/13 14:40:34;;;;;;;6.10;5.60;;;;;;;;;;5073229;28;20503;-73
2022/05/13 14:43:04;;;;;;;9.70;6.60;;;;;;;;;;5072950;28;20459;-73
2022/05/13 14:45:36;;;;;;;6.43;5.83;;;;;;;;;;5072793;28;20823;-73
2022/05/13 14:48:21;;;;;;;7.57;5.47;;;;;;;;;;5072863;28;20456;-73
2022/05/13 14:50:55;;;;;;;8.40;7.60;;;;;;;;;;5073062;28;20521;-73
2022/05/13 14:53:22;;;;;;;7.83;6.87;;;;;;;;;;5072875;28;20483;-73
2022/05/13 14:55:52;;;;;;;9.17;6.70;;;;;;;;;;5072777;28;20447;-73
2022/05/13 14:58:22;;;;;;;7.27;6.60;;;;;;;;;;5072655;28;20455;-73
2022/05/13 15:00:51;;;;;;;9.37;7.50;;;;;;;;;;5073011;28;20479;-73
2022/05/13 15:03:22;;;;;;;6.67;6.07;;;;;;;;;;5072589;28;20439;-73
2022/05/13 15:05:51;;;;;;;6.70;6.10;;;;;;;;;;5072569;28;20451;-73
2022/05/13 15:08:28;;;;;;;6.63;6.03;;;;;;;;;;5072580;28;20451;-73
2022/05/13 15:10:56;;;;;;;8.30;6.90;;;;;;;;;;5072738;28;20475;-73
2022/05/13 15:13:24;;;;;;;10.53;6.47;;;;;;;;;;5072792;28;20494;-73
2022/05/13 15:15:53;;;;;;;7.40;6.70;;;;;;;;;;5072164;28;20980;-73
2022/05/13 15:18:22;;;;;;;8.80;7.27;;;;;;;;;;5072540;28;20464;-73
2022/05/13 15:20:49;;;;;;;8.20;6.53;;;;;;;;;;5072633;28;20858;-73